Time;durP1;ratioP1;P1;durP2;ratioP2;P2;SDS_P1;SDS_P2;PMS_P1;PMS_P2;Temp;Humidity;BMP_temperature;BMP_pressure;BME280_temperature;BME280_humidity;BME280_pressure;Samples;Min_cycle;Max_cycle;Signal;HPM_P1;HPM_P2
2023/12/25 00:01:07;;;;;;;7.63;1.52;;;11.60;99.90;;;;;;6281561;22;20195;-87
2023/12/25 00:03:33;;;;;;;7.93;1.60;;;11.70;99.90;;;;;;6281601;22;20516;-86
2023/12/25 00:05:59;;;;;;;7.60;1.45;;;11.70;99.90;;;;;;6281586;22;20183;-87
2023/12/25 00:08:25;;;;;;;3.95;1.40;;;11.70;99.90;;;;;;6282077;22;20155;-86
2023/12/25 00:10:51;;;;;;;5.90;1.80;;;11.80;99.90;;;;;;6308871;22;20144;-85
2023/12/25 00:13:16;;;;;;;7.13;1.80;;;11.80;99.90;;;;;;6309252;22;20144;-82
2023/12/25 00:15:42;;;;;;;3.92;1.00;;;11.80;99.90;;;;;;6308468;22;20559;-84
2023/12/25 00:18:08;;;;;;;5.25;1.25;;;12.00;99.90;;;;;;6281461;22;20148;-85
2023/12/25 00:20:34;;;;;;;4.78;1.50;;;12.00;99.90;;;;;;6281331;22;20175;-85
2023/12/25 00:23:00;;;;;;;4.75;1.35;;;12.10;99.90;;;;;;6281901;22;20160;-85
2023/12/25 00:25:26;;;;;;;6.55;1.73;;;12.00;99.90;;;;;;6281101;22;20243;-87
2023/12/25 00:27:53;;;;;;;5.93;1.70;;;12.00;99.90;;;;;;6281585;22;20232;-86
2023/12/25 00:30:18;;;;;;;6.47;1.52;;;12.00;99.90;;;;;;6281279;22;20449;-86
2023/12/25 00:32:44;;;;;;;7.32;1.60;;;11.90;99.90;;;;;;6281779;22;20156;-87
2023/12/25 00:35:10;;;;;;;7.85;1.38;;;11.90;99.90;;;;;;6281498;22;20152;-87
2023/12/25 00:37:36;;;;;;;5.32;1.30;;;11.90;99.90;;;;;;6308971;22;20235;-85
2023/12/25 00:40:02;;;;;;;8.80;1.73;;;11.90;99.90;;;;;;6308651;22;20206;-84
2023/12/25 00:42:28;;;;;;;6.38;1.92;;;11.80;99.90;;;;;;6281515;22;20191;-84
2023/12/25 00:44:54;;;;;;;6.13;1.50;;;11.70;99.90;;;;;;6308939;22;20485;-85
2023/12/25 00:47:23;;;;;;;6.47;1.25;;;11.70;99.90;;;;;;6281124;22;20163;-86
2023/12/25 00:49:49;;;;;;;5.20;1.05;;;11.80;99.90;;;;;;6309040;22;20423;-84
2023/12/25 00:52:17;;;;;;;4.38;1.30;;;11.80;99.90;;;;;;6309336;22;20155;-85
2023/12/25 00:54:43;;;;;;;4.28;1.27;;;11.80;99.90;;;;;;6281608;22;20152;-85
2023/12/25 00:57:10;;;;;;;6.45;1.50;;;11.80;99.90;;;;;;6281521;22;20638;-87
2023/12/25 00:59:36;;;;;;;5.05;1.58;;;11.90;99.90;;;;;;6309393;22;20140;-88
2023/12/25 01:02:02;;;;;;;3.20;1.10;;;11.80;99.90;;;;;;6281568;22;20222;-86
2023/12/25 01:04:27;;;;;;;4.55;1.00;;;11.80;99.90;;;;;;6281829;22;20156;-87
2023/12/25 01:06:53;;;;;;;6.03;1.27;;;11.70;99.90;;;;;;6281522;22;20590;-85
2023/12/25 01:09:19;;;;;;;7.00;1.40;;;11.70;99.90;;;;;;6281179;22;20237;-86
2023/12/25 01:11:45;;;;;;;6.70;1.58;;;11.60;99.90;;;;;;6280581;22;20567;-85
2023/12/25 01:14:11;;;;;;;5.05;1.48;;;11.70;99.90;;;;;;6281850;22;20152;-85
2023/12/25 01:16:38;;;;;;;8.05;1.67;;;11.60;99.90;;;;;;6308039;22;20205;-89
2023/12/25 01:19:04;;;;;;;2.58;1.10;;;11.60;99.90;;;;;;6281490;22;20152;-90
2023/12/25 01:21:32;;;;;;;6.03;1.42;;;11.60;99.90;;;;;;6281470;22;20194;-85
2023/12/25 01:23:59;;;;;;;5.85;1.60;;;11.60;99.90;;;;;;6281881;22;20590;-86
2023/12/25 01:26:25;;;;;;;7.18;1.30;;;11.60;99.90;;;;;;6308454;22;20148;-87
2023/12/25 01:28:52;;;;;;;3.97;1.38;;;11.60;99.90;;;;;;6281473;22;20241;-86
2023/12/25 01:31:18;;;;;;;6.10;1.60;;;11.60;99.90;;;;;;6307916;22;20140;-88
2023/12/25 01:33:44;;;;;;;3.40;1.30;;;11.50;99.90;;;;;;6281535;22;20156;-85
2023/12/25 01:36:10;;;;;;;4.07;1.38;;;11.60;99.90;;;;;;6281181;22;20456;-85
2023/12/25 01:38:36;;;;;;;5.88;1.25;;;11.50;99.90;;;;;;6309272;22;20239;-86
2023/12/25 01:41:02;;;;;;;4.88;1.58;;;11.40;99.90;;;;;;6281583;22;20191;-87
2023/12/25 01:43:28;;;;;;;3.97;1.10;;;11.30;99.90;;;;;;6281717;22;20163;-84
2023/12/25 01:45:54;;;;;;;3.90;1.15;;;11.30;99.90;;;;;;6280562;22;20203;-86
2023/12/25 01:48:22;;;;;;;3.80;1.23;;;11.30;99.90;;;;;;6308751;22;20227;-87
2023/12/25 01:50:49;;;;;;;3.90;1.38;;;11.30;99.90;;;;;;6308883;22;20137;-92
2023/12/25 01:53:15;;;;;;;5.82;1.20;;;11.20;99.90;;;;;;6308969;22;20152;-84
2023/12/25 01:55:41;;;;;;;6.75;1.40;;;11.20;99.90;;;;;;6309502;22;20197;-86
2023/12/25 01:58:07;;;;;;;4.35;1.30;;;11.20;99.90;;;;;;6283438;22;20155;-86
2023/12/25 02:00:34;;;;;;;4.13;1.50;;;11.20;99.90;;;;;;6310399;22;20183;-87
2023/12/25 02:03:00;;;;;;;5.53;1.10;;;11.20;99.90;;;;;;6283096;22;20174;-92
2023/12/25 02:05:26;;;;;;;4.72;1.25;;;11.20;99.90;;;;;;6310617;22;20158;-87
2023/12/25 02:07:53;;;;;;;4.53;1.40;;;11.20;99.90;;;;;;6283587;22;20158;-86
2023/12/25 02:10:27;;;;;;;5.40;1.48;;;11.30;99.90;;;;;;6283436;22;20199;-85
2023/12/25 02:12:53;;;;;;;5.22;1.52;;;11.20;99.90;;;;;;6283300;22;20159;-88
2023/12/25 02:15:19;;;;;;;5.32;1.20;;;11.30;99.90;;;;;;6282464;22;20452;-86
2023/12/25 02:17:45;;;;;;;2.42;1.15;;;11.30;99.90;;;;;;6283042;22;20217;-85
2023/12/25 02:20:13;;;;;;;6.60;1.55;;;11.30;99.90;;;;;;6309827;22;20164;-87
2023/12/25 02:22:41;;;;;;;2.88;1.10;;;11.30;99.90;;;;;;6310066;22;20162;-90
2023/12/25 02:25:31;;;;;;;5.00;1.35;;;11.30;99.90;;;;;;6310815;22;20148;-85
2023/12/25 02:27:59;;;;;;;4.43;1.45;;;11.50;99.90;;;;;;6283396;22;20258;-86
2023/12/25 02:30:25;;;;;;;4.43;1.20;;;11.50;99.90;;;;;;6282764;22;20185;-88
2023/12/25 02:32:51;;;;;;;3.63;1.30;;;11.50;99.90;;;;;;6283500;22;20234;-88
2023/12/25 02:35:17;;;;;;;2.92;1.13;;;11.60;99.90;;;;;;6310999;22;20180;-86
2023/12/25 02:37:45;;;;;;;6.30;1.30;;;11.50;99.90;;;;;;6282913;22;20217;-86
2023/12/25 02:40:11;;;;;;;5.07;1.45;;;11.50;99.90;;;;;;6282569;22;20180;-86
2023/12/25 02:42:37;;;;;;;5.07;1.50;;;11.50;99.90;;;;;;6310556;22;20209;-87
2023/12/25 02:45:03;;;;;;;6.72;1.25;;;11.60;99.90;;;;;;6310486;22;20180;-87
2023/12/25 02:47:29;;;;;;;5.30;1.20;;;11.70;99.90;;;;;;6282845;22;20240;-89
2023/12/25 02:49:55;;;;;;;6.55;1.35;;;11.70;99.90;;;;;;6282766;22;20156;-89
2023/12/25 02:52:21;;;;;;;5.28;1.30;;;11.80;99.90;;;;;;6310224;22;20155;-87
2023/12/25 02:54:47;;;;;;;7.30;1.50;;;11.70;99.90;;;;;;6283208;22;20170;-88
2023/12/25 02:57:12;;;;;;;2.47;0.90;;;11.70;99.90;;;;;;6282569;22;20152;-88
2023/12/25 02:59:40;;;;;;;3.50;1.15;;;11.80;99.90;;;;;;6282538;22;20162;-87
2023/12/25 03:02:06;;;;;;;4.63;1.13;;;11.90;99.90;;;;;;6281740;22;20218;-94
2023/12/25 03:04:32;;;;;;;5.15;1.15;;;12.00;99.90;;;;;;6282853;22;20152;-87
2023/12/25 03:06:58;;;;;;;4.35;1.33;;;11.80;99.90;;;;;;6282823;22;20156;-88
2023/12/25 03:09:24;;;;;;;4.65;1.42;;;11.90;99.90;;;;;;6282026;22;20179;-88
2023/12/25 03:11:49;;;;;;;3.90;1.10;;;11.90;99.90;;;;;;6310654;22;20190;-87
2023/12/25 03:14:15;;;;;;;6.07;1.05;;;12.00;99.90;;;;;;6310024;22;20223;-87
2023/12/25 03:16:41;;;;;;;2.28;0.85;;;12.10;99.90;;;;;;6310147;22;20568;-88
2023/12/25 03:19:07;;;;;;;5.40;1.70;;;12.00;99.90;;;;;;6283011;22;20209;-86
2023/12/25 03:21:33;;;;;;;5.95;1.52;;;11.90;99.90;;;;;;6309888;22;20183;-87
2023/12/25 03:23:59;;;;;;;4.13;1.27;;;11.80;99.90;;;;;;6282872;22;20162;-89
2023/12/25 03:26:24;;;;;;;3.22;1.00;;;11.80;99.90;;;;;;6282655;22;20179;-88
2023/12/25 03:28:51;;;;;;;6.03;1.33;;;11.80;99.90;;;;;;6283224;22;20154;-88
2023/12/25 03:31:17;;;;;;;6.85;1.48;;;11.90;99.90;;;;;;6310030;22;20147;-89
2023/12/25 03:33:43;;;;;;;7.38;1.45;;;11.90;99.90;;;;;;6283399;22;20152;-89
2023/12/25 03:36:09;;;;;;;3.90;1.45;;;11.80;99.90;;;;;;6282863;22;20562;-90
2023/12/25 03:38:37;;;;;;;4.43;1.38;;;11.90;99.90;;;;;;6282860;22;20152;-95
2023/12/25 03:41:03;;;;;;;3.40;1.00;;;11.90;99.90;;;;;;6282478;22;20187;-94
2023/12/25 03:43:29;;;;;;;4.07;1.27;;;12.00;99.90;;;;;;6282979;22;20156;-87
2023/12/25 03:45:56;;;;;;;6.63;1.33;;;12.00;99.90;;;;;;6265115;22;20213;-88
2023/12/25 03:48:28;;;;;;;6.00;1.10;;;12.10;99.90;;;;;;6252398;22;20164;-90
2023/12/25 03:50:54;;;;;;;3.47;0.90;;;12.20;99.90;;;;;;6251557;22;20156;-87
2023/12/25 03:53:20;;;;;;;4.85;1.10;;;12.10;99.90;;;;;;6252257;22;20180;-87
2023/12/25 03:55:46;;;;;;;5.03;1.30;;;12.00;99.90;;;;;;6251618;22;20572;-87
2023/12/25 03:58:14;;;;;;;6.10;1.20;;;11.90;99.90;;;;;;6278957;22;20179;-88
2023/12/25 04:00:40;;;;;;;2.70;1.20;;;11.70;99.90;;;;;;6278643;22;20171;-86
2023/12/25 04:03:06;;;;;;;5.93;1.20;;;11.80;99.90;;;;;;6278904;22;20156;-88
2023/12/25 04:05:32;;;;;;;4.05;1.00;;;11.90;99.90;;;;;;6278290;22;20172;-89
2023/12/25 04:07:57;;;;;;;4.32;1.17;;;11.80;99.90;;;;;;6278667;22;20203;-87
2023/12/25 04:10:23;;;;;;;5.72;1.50;;;11.80;99.90;;;;;;6251534;22;20152;-88
2023/12/25 04:12:49;;;;;;;7.30;1.20;;;11.80;99.90;;;;;;6252117;22;20161;-87
2023/12/25 04:15:15;;;;;;;3.65;1.00;;;11.80;99.90;;;;;;6278123;22;20563;-94
2023/12/25 04:17:42;;;;;;;5.22;1.48;;;11.80;99.90;;;;;;6250357;22;20156;-87
2023/12/25 04:20:09;;;;;;;6.38;1.48;;;11.70;99.90;;;;;;6251427;22;20176;-93
2023/12/25 04:22:35;;;;;;;4.63;1.08;;;11.70;99.90;;;;;;6252045;22;20168;-88
2023/12/25 04:25:01;;;;;;;3.40;1.10;;;11.80;99.90;;;;;;6252067;22;20279;-91
2023/12/25 04:27:27;;;;;;;4.13;0.90;;;11.70;99.90;;;;;;6251703;22;20195;-90
2023/12/25 04:29:52;;;;;;;6.60;1.00;;;11.80;99.90;;;;;;6252015;22;20159;-89
2023/12/25 04:32:18;;;;;;;5.75;1.10;;;11.70;99.90;;;;;;6250565;22;20187;-89
2023/12/25 04:34:44;;;;;;;3.60;1.00;;;11.70;99.90;;;;;;6252015;22;20195;-89
2023/12/25 04:37:10;;;;;;;3.03;0.88;;;11.80;99.90;;;;;;6250910;22;20563;-89
2023/12/25 04:39:36;;;;;;;4.00;1.20;;;11.80;99.90;;;;;;6251832;22;20156;-93
2023/12/25 04:42:02;;;;;;;4.10;1.05;;;11.90;99.90;;;;;;6251979;22;20492;-88
2023/12/25 04:44:28;;;;;;;6.45;1.17;;;11.70;99.90;;;;;;6278134;22;20151;-89
2023/12/25 04:46:53;;;;;;;6.68;1.38;;;11.70;99.90;;;;;;6251120;22;20200;-87
2023/12/25 04:49:25;;;;;;;5.75;1.00;;;11.70;99.90;;;;;;6278619;22;20219;-93
2023/12/25 04:51:51;;;;;;;7.15;1.30;;;11.60;99.90;;;;;;6252731;22;20208;-90
2023/12/25 04:54:17;;;;;;;2.15;1.10;;;11.70;99.90;;;;;;6252014;22;20157;-90
2023/12/25 04:56:43;;;;;;;3.03;0.98;;;11.50;99.90;;;;;;6251627;22;20177;-90
2023/12/25 04:59:09;;;;;;;4.18;0.80;;;11.50;99.90;;;;;;6251905;22;20239;-91
2023/12/25 05:01:35;;;;;;;2.88;0.55;;;11.60;99.90;;;;;;6251543;22;20254;-91
2023/12/25 05:04:01;;;;;;;4.05;1.00;;;11.50;99.90;;;;;;6251461;22;20157;-89
2023/12/25 05:06:27;;;;;;;3.38;1.00;;;11.50;99.90;;;;;;6252146;22;20252;-92
2023/12/25 05:08:54;;;;;;;5.47;0.90;;;11.40;99.90;;;;;;6251626;22;20601;-90
2023/12/25 05:11:23;;;;;;;3.28;0.80;;;11.50;99.90;;;;;;6252082;22;20185;-93
2023/12/25 05:13:49;;;;;;;4.35;1.00;;;11.30;99.90;;;;;;6252065;22;20575;-90
2023/12/25 05:16:15;;;;;;;2.35;0.82;;;11.30;99.90;;;;;;6251741;22;20163;-90
2023/12/25 05:18:41;;;;;;;2.20;0.70;;;11.40;99.90;;;;;;6251579;22;20239;-88
2023/12/25 05:21:09;;;;;;;4.63;1.08;;;11.30;99.90;;;;;;6278970;22;20187;-91
2023/12/25 05:23:35;;;;;;;3.85;1.00;;;11.40;99.90;;;;;;6252344;22;20160;-92
2023/12/25 05:26:01;;;;;;;4.95;1.20;;;11.50;99.90;;;;;;6252291;22;20259;-91
2023/12/25 05:28:27;;;;;;;5.03;1.10;;;11.50;99.90;;;;;;6252460;22;20157;-90
2023/12/25 05:30:55;;;;;;;4.45;0.88;;;11.40;99.90;;;;;;6253504;22;20576;-94
2023/12/25 05:33:20;;;;;;;4.45;0.80;;;11.30;99.90;;;;;;6254483;22;20141;-94
2023/12/25 05:35:46;;;;;;;3.30;0.95;;;11.20;99.90;;;;;;6254573;22;20164;-89
2023/12/25 05:38:12;;;;;;;2.90;0.90;;;11.10;99.90;;;;;;6254329;22;20153;-92
2023/12/25 05:40:45;;;;;;;6.38;1.30;;;11.10;99.90;;;;;;6254367;22;20188;-92
2023/12/25 05:43:11;;;;;;;3.08;0.80;;;11.20;99.90;;;;;;6253573;22;20160;-89
2023/12/25 05:45:40;;;;;;;5.95;1.25;;;11.20;99.90;;;;;;6253875;22;20204;-92
2023/12/25 05:48:06;;;;;;;2.80;0.80;;;11.10;99.90;;;;;;6253604;22;20193;-94
2023/12/25 05:50:32;;;;;;;4.38;0.82;;;11.10;99.90;;;;;;6254026;22;20156;-94
2023/12/25 05:52:58;;;;;;;3.33;1.00;;;11.00;99.90;;;;;;6254738;22;20160;-92
2023/12/25 05:55:25;;;;;;;3.45;0.80;;;11.00;99.90;;;;;;6254290;22;20157;-90
2023/12/25 05:57:51;;;;;;;3.67;0.90;;;11.00;99.90;;;;;;6253624;22;20164;-94
2023/12/25 06:00:23;;;;;;;4.65;0.98;;;10.90;99.90;;;;;;6280664;22;20199;-91
2023/12/25 06:02:49;;;;;;;5.00;1.20;;;10.90;99.90;;;;;;6280828;22;20219;-89
2023/12/25 06:05:15;;;;;;;4.38;1.20;;;10.90;99.90;;;;;;6254270;22;20167;-93
2023/12/25 06:07:41;;;;;;;3.85;0.90;;;10.80;99.90;;;;;;6253168;22;20326;-91
2023/12/25 06:10:09;;;;;;;2.63;0.98;;;11.00;99.90;;;;;;6280737;22;20145;-86
2023/12/25 06:12:35;;;;;;;4.40;1.10;;;11.00;99.90;;;;;;6253638;22;20556;-91
2023/12/25 06:15:05;;;;;;;2.88;0.88;;;10.90;99.90;;;;;;6253088;22;20152;-90
2023/12/25 06:17:32;;;;;;;5.97;1.10;;;10.90;99.90;;;;;;6252845;22;20198;-90
2023/12/25 06:20:09;;;;;;;4.03;1.20;;;10.80;99.90;;;;;;6253785;22;20508;-94
2023/12/25 06:22:35;;;;;;;6.00;1.60;;;10.70;99.90;;;;;;6253255;22;20152;-90
2023/12/25 06:25:01;;;;;;;4.47;1.25;;;10.70;99.90;;;;;;6253131;22;20157;-88
2023/12/25 06:27:27;;;;;;;5.38;1.25;;;10.60;99.90;;;;;;6279750;22;20335;-88
2023/12/25 06:29:53;;;;;;;3.40;1.00;;;10.60;99.90;;;;;;6253093;22;20184;-88
2023/12/25 06:32:19;;;;;;;5.47;1.13;;;10.70;99.90;;;;;;6253430;22;20464;-88
2023/12/25 06:34:45;;;;;;;6.32;1.10;;;10.60;99.90;;;;;;6253430;22;20164;-92
2023/12/25 06:37:11;;;;;;;4.97;1.15;;;10.60;99.90;;;;;;6253262;22;20156;-92
2023/12/25 06:39:39;;;;;;;4.20;1.00;;;10.60;99.90;;;;;;6252653;22;20176;-90
2023/12/25 06:42:05;;;;;;;2.92;0.90;;;10.50;99.90;;;;;;6252942;22;20180;-89
2023/12/25 06:44:30;;;;;;;5.95;1.40;;;10.50;99.90;;;;;;6252815;22;20164;-90
2023/12/25 06:46:56;;;;;;;4.00;1.10;;;10.50;99.90;;;;;;6309453;22;20198;-89
2023/12/25 06:49:28;;;;;;;8.50;1.13;;;10.40;99.90;;;;;;6283337;22;20446;-90
2023/12/25 06:51:54;;;;;;;5.95;1.35;;;10.30;99.90;;;;;;6310702;22;20215;-93
2023/12/25 06:54:20;;;;;;;7.43;1.40;;;10.30;99.90;;;;;;6283437;22;20183;-89
2023/12/25 06:56:45;;;;;;;5.38;1.30;;;10.30;99.90;;;;;;6283414;22;20243;-89
2023/12/25 06:59:11;;;;;;;5.45;1.40;;;10.30;99.90;;;;;;6283778;22;20182;-92
2023/12/25 07:01:39;;;;;;;5.15;1.30;;;10.30;99.90;;;;;;6283290;22;20191;-92
2023/12/25 07:04:06;;;;;;;6.07;1.63;;;10.30;99.90;;;;;;6310911;22;20136;-90
2023/12/25 07:06:32;;;;;;;6.55;1.05;;;10.30;99.90;;;;;;6311038;22;20152;-89
2023/12/25 07:08:58;;;;;;;5.35;1.35;;;10.30;99.90;;;;;;6282879;22;20239;-91
2023/12/25 07:11:28;;;;;;;10.52;1.30;;;10.40;99.90;;;;;;6283509;22;20620;-91
2023/12/25 07:13:57;;;;;;;5.20;1.10;;;10.50;99.90;;;;;;6283320;22;20155;-91
2023/12/25 07:16:23;;;;;;;4.80;1.20;;;10.50;99.90;;;;;;6310688;22;20148;-94
2023/12/25 07:18:51;;;;;;;10.15;1.95;;;10.60;99.90;;;;;;6283816;22;20159;-91
2023/12/25 07:21:21;;;;;;;4.75;1.02;;;10.50;99.90;;;;;;6283339;22;20195;-90
2023/12/25 07:23:47;;;;;;;3.33;1.55;;;10.50;99.90;;;;;;6283426;22;20148;-90
2023/12/25 07:26:12;;;;;;;8.45;1.35;;;10.50;99.90;;;;;;6282879;22;20206;-90
2023/12/25 07:28:38;;;;;;;7.10;1.55;;;10.50;99.90;;;;;;6282237;22;20148;-89
2023/12/25 07:31:10;;;;;;;6.63;1.40;;;10.50;99.90;;;;;;6309263;22;20147;-94
2023/12/25 07:33:36;;;;;;;8.13;1.65;;;10.60;99.90;;;;;;6280928;22;20156;-87
2023/12/25 07:36:04;;;;;;;3.58;0.88;;;10.50;99.90;;;;;;6309041;22;20148;-84
2023/12/25 07:38:30;;;;;;;4.15;0.98;;;10.50;99.90;;;;;;6281601;22;20160;-84
2023/12/25 07:40:57;;;;;;;5.18;0.90;;;10.30;99.90;;;;;;6309311;22;20229;-85
2023/12/25 07:43:24;;;;;;;4.18;1.00;;;10.10;99.90;;;;;;6282492;22;20152;-90
2023/12/25 07:45:50;;;;;;;2.53;0.82;;;10.00;99.90;;;;;;6282074;22;20235;-84
2023/12/25 07:48:17;;;;;;;6.15;1.67;;;9.90;99.90;;;;;;6281495;22;20594;-84
2023/12/25 07:50:43;;;;;;;3.65;0.90;;;9.80;99.90;;;;;;6280879;22;20624;-84
2023/12/25 07:53:09;;;;;;;3.63;0.70;;;9.70;99.90;;;;;;6280685;22;20227;-86
2023/12/25 07:55:38;;;;;;;5.82;0.95;;;9.70;99.90;;;;;;6281696;22;20551;-84
2023/12/25 07:58:04;;;;;;;2.75;0.60;;;9.60;99.90;;;;;;6281821;22;20159;-87
2023/12/25 08:00:30;;;;;;;1.95;0.55;;;9.70;99.90;;;;;;6307958;22;20176;-84
2023/12/25 08:02:56;;;;;;;3.40;0.80;;;9.60;99.90;;;;;;6308592;22;20217;-84
2023/12/25 08:05:22;;;;;;;2.95;0.70;;;9.60;99.90;;;;;;6309180;22;20232;-83
2023/12/25 08:07:48;;;;;;;5.15;0.98;;;9.70;99.90;;;;;;6281155;22;20567;-85
2023/12/25 08:10:14;;;;;;;1.33;0.77;;;9.60;99.90;;;;;;6308597;22;20456;-85
2023/12/25 08:12:43;;;;;;;3.13;0.68;;;9.70;99.90;;;;;;6281051;22;20155;-85
2023/12/25 08:15:12;;;;;;;1.75;0.60;;;9.50;99.90;;;;;;6309108;22;20147;-89
2023/12/25 08:17:38;;;;;;;1.45;0.70;;;9.50;99.90;;;;;;6280192;22;20156;-85
2023/12/25 08:20:05;;;;;;;3.40;0.70;;;9.60;99.90;;;;;;6280856;22;20221;-84
2023/12/25 08:22:32;;;;;;;2.10;0.80;;;9.60;99.90;;;;;;6308590;22;20640;-83
2023/12/25 08:24:58;;;;;;;3.53;0.80;;;9.60;99.90;;;;;;6281309;22;20151;-84
2023/12/25 08:27:23;;;;;;;2.33;0.85;;;9.70;99.90;;;;;;6281463;22;20155;-85
2023/12/25 08:29:49;;;;;;;6.82;1.20;;;9.70;99.90;;;;;;6280507;22;20518;-84
2023/12/25 08:32:23;;;;;;;3.78;1.13;;;9.60;99.90;;;;;;6307536;22;20187;-87
2023/12/25 08:34:49;;;;;;;5.80;0.95;;;9.70;99.90;;;;;;6282023;22;20152;-86
2023/12/25 08:37:15;;;;;;;3.17;0.95;;;9.70;99.90;;;;;;6281489;22;20201;-87
2023/12/25 08:39:46;;;;;;;4.78;0.80;;;9.70;99.90;;;;;;6281511;22;20162;-91
2023/12/25 08:42:12;;;;;;;2.22;0.88;;;9.70;99.90;;;;;;6308734;22;20172;-89
2023/12/25 08:44:38;;;;;;;7.30;1.23;;;9.70;99.90;;;;;;6281839;22;20160;-87
2023/12/25 08:47:04;;;;;;;3.92;0.93;;;9.80;99.90;;;;;;6280343;22;20164;-86
2023/12/25 08:49:30;;;;;;;4.60;0.93;;;9.90;99.90;;;;;;6281899;22;20160;-86
2023/12/25 08:51:58;;;;;;;4.07;1.10;;;9.90;99.90;;;;;;6308096;22;20152;-87
2023/12/25 08:54:24;;;;;;;4.68;1.00;;;9.80;99.90;;;;;;6281646;22;20148;-87
2023/12/25 08:56:51;;;;;;;3.25;1.15;;;9.80;99.90;;;;;;6308703;22;20228;-87
2023/12/25 08:59:17;;;;;;;5.03;1.30;;;9.90;99.90;;;;;;6282365;22;20163;-90
2023/12/25 09:01:43;;;;;;;2.92;0.90;;;9.90;99.90;;;;;;6280842;22;20199;-85
2023/12/25 09:04:09;;;;;;;2.25;0.90;;;9.90;99.90;;;;;;6283468;22;20230;-90
2023/12/25 09:06:34;;;;;;;4.50;1.10;;;10.00;99.90;;;;;;6284217;22;20206;-86
2023/12/25 09:09:01;;;;;;;6.70;1.50;;;9.90;99.90;;;;;;6283720;22;20151;-86
2023/12/25 09:11:28;;;;;;;5.10;1.40;;;10.00;99.90;;;;;;6283414;22;20167;-86
2023/12/25 09:13:54;;;;;;;5.43;1.20;;;10.00;99.90;;;;;;6310854;22;20190;-87
2023/12/25 09:16:20;;;;;;;4.55;0.90;;;10.00;99.90;;;;;;6283337;22;20567;-88
2023/12/25 09:18:46;;;;;;;4.13;1.00;;;10.10;99.90;;;;;;6310535;22;20152;-87
2023/12/25 09:21:13;;;;;;;4.07;1.00;;;10.20;99.90;;;;;;6282715;22;20469;-85
2023/12/25 09:23:39;;;;;;;3.65;0.95;;;10.30;99.90;;;;;;6283503;22;20148;-86
2023/12/25 09:26:05;;;;;;;4.40;1.10;;;10.40;99.90;;;;;;6283426;22;20167;-87
2023/12/25 09:28:30;;;;;;;2.30;0.90;;;10.40;99.90;;;;;;6282835;22;20148;-88
2023/12/25 09:30:56;;;;;;;3.78;1.27;;;10.40;99.90;;;;;;6283820;22;20156;-85
2023/12/25 09:33:24;;;;;;;4.82;1.15;;;10.30;99.90;;;;;;6310362;22;20594;-86
2023/12/25 09:35:51;;;;;;;3.88;1.10;;;10.20;99.90;;;;;;6280808;22;20643;-88
2023/12/25 09:38:17;;;;;;;3.97;1.25;;;10.30;99.90;;;;;;6308458;22;20152;-89
2023/12/25 09:40:43;;;;;;;5.40;1.35;;;10.30;99.90;;;;;;6309190;22;20609;-87
2023/12/25 09:43:10;;;;;;;5.20;1.30;;;10.20;99.90;;;;;;6281158;22;20166;-86
2023/12/25 09:45:37;;;;;;;8.27;1.45;;;10.20;99.90;;;;;;6268536;22;20200;-86
2023/12/25 09:48:05;;;;;;;3.70;1.00;;;10.30;99.90;;;;;;6250398;22;20161;-86
2023/12/25 09:50:31;;;;;;;6.05;1.50;;;10.30;99.90;;;;;;6252087;22;20192;-88
2023/12/25 09:52:57;;;;;;;6.47;1.33;;;10.30;99.90;;;;;;6252707;22;20160;-85
2023/12/25 09:55:23;;;;;;;5.53;1.40;;;10.40;99.90;;;;;;6253061;22;20235;-85
2023/12/25 09:57:51;;;;;;;9.30;1.65;;;10.40;99.90;;;;;;6280211;22;20149;-91
2023/12/25 10:00:19;;;;;;;5.10;1.10;;;10.30;99.90;;;;;;6252641;22;20214;-86
2023/12/25 10:02:49;;;;;;;5.38;1.40;;;10.50;99.90;;;;;;6252037;22;20161;-86
2023/12/25 10:05:16;;;;;;;7.47;1.50;;;10.40;99.90;;;;;;6252765;22;20167;-96
2023/12/25 10:07:41;;;;;;;3.10;1.13;;;10.70;99.90;;;;;;6279782;22;20149;-86
2023/12/25 10:10:10;;;;;;;6.93;1.40;;;10.70;99.90;;;;;;6252511;22;20159;-86
2023/12/25 10:12:44;;;;;;;6.20;1.42;;;10.80;99.90;;;;;;6252473;22;20184;-87
2023/12/25 10:15:14;;;;;;;7.90;1.45;;;10.80;99.90;;;;;;6251990;22;20206;-87
2023/12/25 10:17:41;;;;;;;12.30;2.38;;;10.90;99.90;;;;;;6279762;22;20575;-90
2023/12/25 10:20:09;;;;;;;4.57;1.20;;;11.00;99.90;;;;;;6252095;22;20191;-86
2023/12/25 10:22:38;;;;;;;5.65;1.30;;;11.00;99.90;;;;;;6252126;22;20164;-86
2023/12/25 10:25:11;;;;;;;3.28;1.13;;;11.00;99.90;;;;;;6252133;22;20156;-87
2023/12/25 10:27:39;;;;;;;5.13;1.10;;;11.00;99.90;;;;;;6251712;22;20157;-87
2023/12/25 10:30:19;;;;;;;6.38;1.20;;;10.90;99.90;;;;;;6251063;22;20234;-86
2023/12/25 10:32:49;;;;;;;6.28;1.55;;;10.80;99.90;;;;;;6278279;22;20197;-87
2023/12/25 10:35:19;;;;;;;4.72;1.50;;;10.70;99.90;;;;;;6253004;22;20152;-90
2023/12/25 10:37:46;;;;;;;3.33;1.58;;;10.70;99.90;;;;;;6278758;22;20334;-88
2023/12/25 10:40:18;;;;;;;5.90;1.50;;;10.70;99.90;;;;;;6252321;22;20514;-89
2023/12/25 10:42:50;;;;;;;6.53;1.80;;;10.70;99.90;;;;;;6278941;22;20156;-88
2023/12/25 10:45:27;;;;;;;9.32;1.73;;;10.60;99.90;;;;;;6288817;22;20279;-89
2023/12/25 10:47:58;;;;;;;6.13;1.20;;;10.60;99.90;;;;;;6309153;22;20230;-89
2023/12/25 10:50:26;;;;;;;5.65;1.20;;;10.60;99.90;;;;;;6283793;22;20175;-90
2023/12/25 10:52:59;;;;;;;4.00;1.23;;;10.70;99.90;;;;;;6311443;22;20479;-87
2023/12/25 10:55:46;;;;;;;5.05;1.35;;;10.70;99.90;;;;;;6282948;22;20152;-88
2023/12/25 10:58:13;;;;;;;10.57;1.48;;;10.80;99.90;;;;;;6310512;22;20144;-89
2023/12/25 11:00:54;;;;;;;11.05;1.75;;;10.80;99.90;;;;;;6309994;22;20471;-88
2023/12/25 11:03:21;;;;;;;7.82;1.75;;;10.80;99.90;;;;;;6282976;22;20155;-88
2023/12/25 11:05:48;;;;;;;4.53;1.20;;;10.80;99.90;;;;;;6309448;22;20136;-88
2023/12/25 11:08:15;;;;;;;8.00;1.80;;;11.00;99.90;;;;;;6282595;22;20167;-88
2023/12/25 11:10:41;;;;;;;2.85;1.35;;;11.20;99.90;;;;;;6310203;22;20151;-88
2023/12/25 11:13:09;;;;;;;5.50;1.60;;;11.30;99.90;;;;;;6282951;22;20166;-89
2023/12/25 11:15:35;;;;;;;6.93;1.70;;;11.30;99.90;;;;;;6282378;22;20202;-88
2023/12/25 11:18:01;;;;;;;6.10;1.33;;;11.30;99.90;;;;;;6310358;22;20148;-90
2023/12/25 11:20:30;;;;;;;7.32;1.38;;;11.20;99.90;;;;;;6282484;22;20183;-88
2023/12/25 11:23:01;;;;;;;7.85;1.55;;;11.10;99.90;;;;;;6311646;22;20167;-89
2023/12/25 11:25:32;;;;;;;5.50;1.60;;;11.10;99.90;;;;;;6283279;22;20559;-89
2023/12/25 11:28:02;;;;;;;4.22;1.17;;;11.20;99.90;;;;;;6283550;22;20151;-88
2023/12/25 11:30:32;;;;;;;8.07;1.88;;;11.20;99.90;;;;;;6282809;22;20156;-92
2023/12/25 11:33:02;;;;;;;5.65;1.20;;;11.30;99.90;;;;;;6282858;22;20158;-90
2023/12/25 11:35:29;;;;;;;4.00;1.20;;;11.20;99.90;;;;;;6310532;22;20148;-92
2023/12/25 11:38:27;;;;;;;5.53;1.60;;;11.30;99.90;;;;;;6283577;22;20159;-90
2023/12/25 11:40:53;;;;;;;10.18;1.50;;;11.30;99.90;;;;;;6216626;22;20267;-91
2023/12/25 11:43:23;;;;;;;6.82;1.20;;;11.20;99.90;;;;;;6282100;22;20234;-92
2023/12/25 11:45:50;;;;;;;7.18;1.63;;;11.30;99.90;;;;;;6282200;22;20227;-89
2023/12/25 11:48:16;;;;;;;7.65;1.65;;;11.20;99.90;;;;;;6282375;22;20463;-89
2023/12/25 11:50:45;;;;;;;6.72;1.13;;;11.20;99.90;;;;;;6282440;22;20205;-88
2023/12/25 11:53:55;;;;;;;4.72;1.20;;;11.20;99.90;;;;;;6282837;22;20654;-90
2023/12/25 11:56:21;;;;;;;5.95;1.17;;;11.30;99.90;;;;;;6131807;23;20206;-94
2023/12/25 11:58:48;;;;;;;3.10;1.05;;;11.20;99.90;;;;;;6264277;22;20563;-91
2023/12/25 12:01:18;;;;;;;4.40;1.00;;;11.30;99.90;;;;;;6282753;22;20194;-91
2023/12/25 12:03:50;;;;;;;6.50;1.40;;;11.20;99.90;;;;;;6282718;22;20559;-90
2023/12/25 12:06:18;;;;;;;5.95;1.80;;;11.10;99.90;;;;;;6310515;22;20155;-91
2023/12/25 12:08:45;;;;;;;5.38;1.15;;;11.00;99.90;;;;;;6309052;22;20239;-92
2023/12/25 12:11:13;;;;;;;10.02;1.52;;;11.00;99.90;;;;;;6310198;22;20156;-91
2023/12/25 12:13:40;;;;;;;7.05;1.40;;;11.20;99.90;;;;;;6282637;22;20156;-91
2023/12/25 12:16:07;;;;;;;5.15;1.30;;;11.10;99.90;;;;;;6281369;22;20203;-91
2023/12/25 12:18:33;;;;;;;4.53;1.60;;;11.10;99.90;;;;;;6283102;22;20240;-91
2023/12/25 12:20:59;;;;;;;5.40;1.60;;;11.20;99.90;;;;;;6282319;22;20192;-90
2023/12/25 12:23:33;;;;;;;10.60;1.77;;;11.30;99.90;;;;;;6282705;22;20559;-90
2023/12/25 12:26:00;;;;;;;5.32;1.58;;;11.30;99.90;;;;;;6282658;22;20235;-93
2023/12/25 12:28:27;;;;;;;4.75;1.33;;;11.20;99.90;;;;;;6283161;22;20152;-91
2023/12/25 12:30:53;;;;;;;6.95;1.58;;;11.20;99.90;;;;;;6310138;22;20136;-91
2023/12/25 12:33:22;;;;;;;4.22;1.20;;;11.20;99.90;;;;;;6281867;22;20209;-92
2023/12/25 12:35:50;;;;;;;4.53;1.17;;;11.20;99.90;;;;;;6282819;22;20229;-92
2023/12/25 12:38:16;;;;;;;3.00;1.00;;;11.30;99.90;;;;;;6282455;22;20575;-92
2023/12/25 12:40:42;;;;;;;6.93;1.30;;;11.30;99.90;;;;;;6283038;22;20183;-93
2023/12/25 12:43:08;;;;;;;4.15;1.10;;;11.30;99.90;;;;;;6282634;22;20164;-92
2023/12/25 12:45:34;;;;;;;5.57;1.00;;;11.30;99.90;;;;;;6270160;22;20196;-92
2023/12/25 12:48:01;;;;;;;5.68;1.30;;;11.30;99.90;;;;;;6251477;22;20473;-95